Time;durP1;ratioP1;P1;durP2;ratioP2;P2;SDS_P1;SDS_P2;PMS_P1;PMS_P2;Temp;Humidity;BMP_temperature;BMP_pressure;BME280_temperature;BME280_humidity;BME280_pressure;Samples;Min_cycle;Max_cycle;Signal;HPM_P1;HPM_P2
2021/11/15 00:00:17;;;;;;;19.53;14.00;;;;;;;;;;4985258;28;20648;-80
2021/11/15 00:02:43;;;;;;;17.27;13.63;;;;;;;;;;4976219;28;20198;-77
2021/11/15 00:05:09;;;;;;;20.87;14.30;;;;;;;;;;4998187;28;20654;-75
2021/11/15 00:07:34;;;;;;;23.00;15.37;;;;;;;;;;4979539;28;20183;-75
2021/11/15 00:10:00;;;;;;;18.97;14.33;;;;;;;;;;4993987;28;20187;-75
2021/11/15 00:12:25;;;;;;;22.23;15.40;;;;;;;;;;4997357;28;20684;-76
2021/11/15 00:14:50;;;;;;;23.87;15.03;;;;;;;;;;4999243;28;20644;-77
2021/11/15 00:17:15;;;;;;;22.67;15.13;;;;;;;;;;4983671;28;20630;-77
2021/11/15 00:19:41;;;;;;;18.77;14.77;;;;;;;;;;4998898;28;20250;-78
2021/11/15 00:22:06;;;;;;;19.27;13.97;;;;;;;;;;4979134;28;20517;-77
2021/11/15 00:24:31;;;;;;;19.17;13.47;;;;;;;;;;5000273;28;22149;-78
2021/11/15 00:26:56;;;;;;;18.53;14.17;;;;;;;;;;4982020;28;20718;-77
2021/11/15 00:29:22;;;;;;;22.03;15.70;;;;;;;;;;4976097;28;21334;-77
2021/11/15 00:31:47;;;;;;;19.17;14.47;;;;;;;;;;5011592;28;20208;-78
2021/11/15 00:34:12;;;;;;;20.83;14.97;;;;;;;;;;5010135;28;20176;-77
2021/11/15 00:36:37;;;;;;;18.73;13.33;;;;;;;;;;5007972;28;20241;-76
2021/11/15 00:39:04;;;;;;;20.27;13.67;;;;;;;;;;5008596;28;20297;-76
2021/11/15 00:41:29;;;;;;;16.83;13.37;;;;;;;;;;5010136;28;20233;-76
2021/11/15 00:43:54;;;;;;;17.57;13.07;;;;;;;;;;4992759;28;20191;-77
2021/11/15 00:46:21;;;;;;;16.73;12.60;;;;;;;;;;5014328;28;20616;-76
2021/11/15 00:48:46;;;;;;;16.87;13.57;;;;;;;;;;5012678;28;20191;-77
2021/11/15 00:51:11;;;;;;;21.43;14.13;;;;;;;;;;5014494;28;20194;-76
2021/11/15 00:53:36;;;;;;;15.47;11.57;;;;;;;;;;4999366;28;20642;-76
2021/11/15 00:56:02;;;;;;;19.67;13.50;;;;;;;;;;5010962;28;20190;-76
2021/11/15 00:58:27;;;;;;;17.57;12.30;;;;;;;;;;4987746;28;20295;-77
2021/11/15 01:00:52;;;;;;;15.90;11.90;;;;;;;;;;4994412;28;20190;-77
2021/11/15 01:03:17;;;;;;;16.97;12.40;;;;;;;;;;4979368;28;20222;-75
2021/11/15 01:05:49;;;;;;;18.80;12.90;;;;;;;;;;4994857;28;20189;-76
2021/11/15 01:08:16;;;;;;;17.67;12.27;;;;;;;;;;4993020;28;20277;-77
2021/11/15 01:10:41;;;;;;;16.97;12.43;;;;;;;;;;4993535;28;20867;-77
2021/11/15 01:13:06;;;;;;;15.60;12.63;;;;;;;;;;4989159;28;21471;-75
2021/11/15 01:15:32;;;;;;;17.23;12.03;;;;;;;;;;4998275;28;20191;-78
2021/11/15 01:17:57;;;;;;;17.93;12.40;;;;;;;;;;4998641;28;20181;-77
2021/11/15 01:20:30;;;;;;;14.60;11.47;;;;;;;;;;4995573;28;20183;-77
2021/11/15 01:22:56;;;;;;;16.33;11.50;;;;;;;;;;4995132;28;20240;-77
2021/11/15 01:25:21;;;;;;;16.77;11.67;;;;;;;;;;4995348;28;20285;-77
2021/11/15 01:27:46;;;;;;;14.40;11.70;;;;;;;;;;4978643;28;21068;-77
2021/11/15 01:30:14;;;;;;;13.40;10.93;;;;;;;;;;4979958;28;20179;-78
2021/11/15 01:32:40;;;;;;;14.13;11.43;;;;;;;;;;4994487;28;20207;-78
2021/11/15 01:35:06;;;;;;;15.87;12.50;;;;;;;;;;4993971;28;20174;-76
2021/11/15 01:37:31;;;;;;;18.03;12.57;;;;;;;;;;4994021;28;20564;-77
2021/11/15 01:39:56;;;;;;;16.37;12.27;;;;;;;;;;4991487;28;20321;-77
2021/11/15 01:42:22;;;;;;;17.77;12.67;;;;;;;;;;4979545;28;20259;-76
2021/11/15 01:44:47;;;;;;;17.43;12.80;;;;;;;;;;4993432;28;20190;-77
2021/11/15 01:47:12;;;;;;;20.23;13.40;;;;;;;;;;4979256;28;20190;-77
2021/11/15 01:49:38;;;;;;;17.43;11.90;;;;;;;;;;4994637;28;20543;-76
2021/11/15 01:52:03;;;;;;;17.40;12.70;;;;;;;;;;4998299;28;20214;-76
2021/11/15 01:54:30;;;;;;;18.10;12.17;;;;;;;;;;4998267;28;20560;-78
2021/11/15 01:56:55;;;;;;;20.40;12.77;;;;;;;;;;4994711;28;20236;-78
2021/11/15 01:59:20;;;;;;;21.40;13.17;;;;;;;;;;4991344;28;20881;-77
2021/11/15 02:01:45;;;;;;;18.00;13.70;;;;;;;;;;4994148;28;20230;-76
2021/11/15 02:04:11;;;;;;;15.23;12.33;;;;;;;;;;4994643;28;20215;-76
2021/11/15 02:06:36;;;;;;;17.70;13.73;;;;;;;;;;4993566;28;20179;-76
2021/11/15 02:09:02;;;;;;;16.80;12.57;;;;;;;;;;4976811;28;20182;-77
2021/11/15 02:11:28;;;;;;;16.83;13.57;;;;;;;;;;4981189;28;20818;-76
2021/11/15 02:13:53;;;;;;;15.53;12.53;;;;;;;;;;4983258;28;21067;-76
2021/11/15 02:16:18;;;;;;;20.80;14.07;;;;;;;;;;5011048;28;20182;-77
2021/11/15 02:18:43;;;;;;;18.50;13.40;;;;;;;;;;4983251;28;20215;-76
2021/11/15 02:21:09;;;;;;;19.23;14.07;;;;;;;;;;4997626;28;20427;-78
2021/11/15 02:23:39;;;;;;;18.67;13.50;;;;;;;;;;4982545;28;20209;-77
2021/11/15 02:26:06;;;;;;;17.80;12.70;;;;;;;;;;4998858;28;20650;-77
2021/11/15 02:28:33;;;;;;;17.57;12.87;;;;;;;;;;4980466;28;20199;-77
2021/11/15 02:30:58;;;;;;;17.57;12.47;;;;;;;;;;5001045;28;20215;-76
2021/11/15 02:33:23;;;;;;;19.47;14.23;;;;;;;;;;4989889;28;20293;-78
2021/11/15 02:35:49;;;;;;;20.53;14.53;;;;;;;;;;4999980;28;20583;-76
2021/11/15 02:38:14;;;;;;;19.63;15.47;;;;;;;;;;5000113;28;20203;-76
2021/11/15 02:40:39;;;;;;;19.00;13.77;;;;;;;;;;5003365;28;20434;-78
2021/11/15 02:43:05;;;;;;;17.40;13.47;;;;;;;;;;5004173;28;20238;-73
2021/11/15 02:45:31;;;;;;;22.03;14.80;;;;;;;;;;4999635;28;20174;-71
2021/11/15 02:47:57;;;;;;;18.13;12.93;;;;;;;;;;4998148;28;20193;-71
2021/11/15 02:50:23;;;;;;;20.67;13.90;;;;;;;;;;4998835;28;20654;-72
2021/11/15 02:52:50;;;;;;;19.63;13.80;;;;;;;;;;4997912;28;20874;-71
2021/11/15 02:55:15;;;;;;;21.60;14.40;;;;;;;;;;4998674;28;20179;-71
2021/11/15 02:57:41;;;;;;;21.23;13.33;;;;;;;;;;4997937;28;20175;-72
2021/11/15 03:00:14;;;;;;;21.00;14.63;;;;;;;;;;4998817;28;20203;-71
2021/11/15 03:02:39;;;;;;;21.67;14.37;;;;;;;;;;4998047;28;20731;-72
2021/11/15 03:05:04;;;;;;;21.43;14.53;;;;;;;;;;4998090;28;20190;-73
2021/11/15 03:07:29;;;;;;;22.23;15.40;;;;;;;;;;4996165;28;20178;-74
2021/11/15 03:09:55;;;;;;;18.87;14.70;;;;;;;;;;4995621;28;20573;-72
2021/11/15 03:12:29;;;;;;;20.27;13.10;;;;;;;;;;4998623;28;20253;-72
2021/11/15 03:14:54;;;;;;;18.83;13.77;;;;;;;;;;4998198;28;20239;-73
2021/11/15 03:17:20;;;;;;;19.03;13.03;;;;;;;;;;4999561;28;20261;-74
2021/11/15 03:19:45;;;;;;;23.83;15.30;;;;;;;;;;4997476;28;20635;-74
2021/11/15 03:22:10;;;;;;;19.20;13.67;;;;;;;;;;5001927;28;20338;-74
2021/11/15 03:24:35;;;;;;;24.23;14.70;;;;;;;;;;4998398;28;20190;-73
2021/11/15 03:27:00;;;;;;;24.13;15.63;;;;;;;;;;5005314;28;20269;-74
2021/11/15 03:29:26;;;;;;;21.63;14.83;;;;;;;;;;5002576;28;20216;-73
2021/11/15 03:31:51;;;;;;;21.03;13.13;;;;;;;;;;4999035;28;20195;-74
2021/11/15 03:34:16;;;;;;;19.67;12.50;;;;;;;;;;4985294;28;20195;-75
2021/11/15 03:36:43;;;;;;;18.43;13.00;;;;;;;;;;5002387;28;20181;-73
2021/11/15 03:39:09;;;;;;;20.67;13.73;;;;;;;;;;4999881;28;20198;-73
2021/11/15 03:41:36;;;;;;;24.63;14.07;;;;;;;;;;5000564;28;20186;-72
2021/11/15 03:44:01;;;;;;;21.40;14.80;;;;;;;;;;5000800;28;20197;-74
2021/11/15 03:46:26;;;;;;;20.00;14.10;;;;;;;;;;4983259;28;20198;-73
2021/11/15 03:48:52;;;;;;;19.00;12.93;;;;;;;;;;5000796;28;20186;-74
2021/11/15 03:51:18;;;;;;;18.10;12.33;;;;;;;;;;4986873;28;20198;-74
2021/11/15 03:53:43;;;;;;;17.93;12.17;;;;;;;;;;4998555;28;20607;-73
2021/11/15 03:56:11;;;;;;;19.17;12.07;;;;;;;;;;4996162;28;20232;-73
2021/11/15 03:58:37;;;;;;;19.33;12.37;;;;;;;;;;4997403;28;20202;-73
2021/11/15 04:01:02;;;;;;;20.93;13.37;;;;;;;;;;4995247;28;20190;-74
2021/11/15 04:03:32;;;;;;;22.13;13.67;;;;;;;;;;4995536;28;20253;-74
2021/11/15 04:06:04;;;;;;;18.93;12.73;;;;;;;;;;4979449;28;20175;-73
2021/11/15 04:08:30;;;;;;;18.87;12.57;;;;;;;;;;4998736;28;20174;-73
2021/11/15 04:10:55;;;;;;;20.53;13.00;;;;;;;;;;4981084;28;20189;-74
2021/11/15 04:13:23;;;;;;;18.57;12.90;;;;;;;;;;4996992;28;20202;-72
2021/11/15 04:15:50;;;;;;;17.60;12.53;;;;;;;;;;4996639;28;20187;-74
2021/11/15 04:18:17;;;;;;;20.40;13.83;;;;;;;;;;4997133;28;20207;-74
2021/11/15 04:20:43;;;;;;;17.20;12.57;;;;;;;;;;4998440;28;20715;-74
2021/11/15 04:23:09;;;;;;;17.80;12.60;;;;;;;;;;4994261;28;20204;-73
2021/11/15 04:25:34;;;;;;;18.67;12.30;;;;;;;;;;4998331;28;20215;-74
2021/11/15 04:27:59;;;;;;;18.23;11.97;;;;;;;;;;4997473;28;20324;-73
2021/11/15 04:30:30;;;;;;;18.40;12.67;;;;;;;;;;4995792;28;20689;-74
2021/11/15 04:32:56;;;;;;;18.13;12.43;;;;;;;;;;4996685;28;20191;-72
2021/11/15 04:35:21;;;;;;;17.03;12.43;;;;;;;;;;4996816;28;20183;-73
2021/11/15 04:37:46;;;;;;;17.03;12.60;;;;;;;;;;4996043;28;20191;-74
2021/11/15 04:40:12;;;;;;;18.63;12.97;;;;;;;;;;4993913;28;20263;-74
2021/11/15 04:42:38;;;;;;;18.87;12.33;;;;;;;;;;5002057;28;20765;-74
2021/11/15 04:45:04;;;;;;;18.20;12.03;;;;;;;;;;4993103;28;20185;-73
2021/11/15 04:47:29;;;;;;;21.87;13.77;;;;;;;;;;4980143;28;20187;-74
2021/11/15 04:49:54;;;;;;;17.23;12.00;;;;;;;;;;4979369;28;20183;-73
2021/11/15 04:52:19;;;;;;;18.17;12.07;;;;;;;;;;4998657;28;20276;-72
2021/11/15 04:54:45;;;;;;;18.73;12.43;;;;;;;;;;4995388;28;20200;-73
2021/11/15 04:57:10;;;;;;;18.17;12.27;;;;;;;;;;4995408;28;20566;-74
2021/11/15 04:59:35;;;;;;;19.17;12.97;;;;;;;;;;5002410;28;20689;-73
2021/11/15 05:02:00;;;;;;;20.03;13.70;;;;;;;;;;4996478;28;20206;-73
2021/11/15 05:04:26;;;;;;;19.07;12.80;;;;;;;;;;4993384;28;20570;-72
2021/11/15 05:06:51;;;;;;;20.33;14.50;;;;;;;;;;4997527;28;20329;-73
2021/11/15 05:09:16;;;;;;;20.50;13.20;;;;;;;;;;4993209;28;20183;-74
2021/11/15 05:11:41;;;;;;;18.83;12.10;;;;;;;;;;4994711;28;20211;-73
2021/11/15 05:14:07;;;;;;;16.57;12.37;;;;;;;;;;4993618;28;20202;-73
2021/11/15 05:16:33;;;;;;;21.97;13.73;;;;;;;;;;4996014;28;20183;-73
2021/11/15 05:18:58;;;;;;;18.43;13.30;;;;;;;;;;4994747;28;20202;-74
2021/11/15 05:21:23;;;;;;;19.70;12.57;;;;;;;;;;4988358;28;20220;-74
2021/11/15 05:23:52;;;;;;;21.43;13.33;;;;;;;;;;4996920;28;20172;-73
2021/11/15 05:26:17;;;;;;;20.87;13.83;;;;;;;;;;4994604;28;20205;-73
2021/11/15 05:28:43;;;;;;;19.47;12.83;;;;;;;;;;4997971;28;20178;-74
2021/11/15 05:31:08;;;;;;;22.47;13.30;;;;;;;;;;4995083;28;20328;-73
2021/11/15 05:33:34;;;;;;;19.77;12.57;;;;;;;;;;4996010;28;20210;-74
2021/11/15 05:35:59;;;;;;;23.03;14.13;;;;;;;;;;4994043;28;20187;-73
2021/11/15 05:38:24;;;;;;;21.10;13.60;;;;;;;;;;4992918;28;20286;-73
2021/11/15 05:40:49;;;;;;;20.77;13.27;;;;;;;;;;4991806;28;20179;-72
2021/11/15 05:43:14;;;;;;;21.27;13.73;;;;;;;;;;4994983;28;20333;-73
2021/11/15 05:45:40;;;;;;;23.07;14.53;;;;;;;;;;4994751;28;20178;-73
2021/11/15 05:48:05;;;;;;;21.90;14.23;;;;;;;;;;4991919;28;20186;-74
2021/11/15 05:50:30;;;;;;;22.93;14.50;;;;;;;;;;4994882;28;20186;-73
2021/11/15 05:52:56;;;;;;;21.13;14.03;;;;;;;;;;4994624;28;20231;-73
2021/11/15 05:55:22;;;;;;;20.43;14.60;;;;;;;;;;4998308;28;20198;-74
2021/11/15 05:57:48;;;;;;;26.53;16.73;;;;;;;;;;5000401;28;20186;-75
2021/11/15 06:00:15;;;;;;;22.73;15.30;;;;;;;;;;4994180;28;20253;-73
2021/11/15 06:02:40;;;;;;;21.60;14.80;;;;;;;;;;4995003;28;20214;-73
2021/11/15 06:05:06;;;;;;;20.90;14.90;;;;;;;;;;4995266;28;21599;-73
2021/11/15 06:07:31;;;;;;;25.53;16.40;;;;;;;;;;4995390;28;20773;-73
2021/11/15 06:09:56;;;;;;;21.83;14.47;;;;;;;;;;4992387;28;20221;-74
2021/11/15 06:12:21;;;;;;;25.40;15.37;;;;;;;;;;4995658;28;20636;-74
2021/11/15 06:14:46;;;;;;;23.63;14.60;;;;;;;;;;4976341;28;20187;-74
2021/11/15 06:17:12;;;;;;;27.30;16.57;;;;;;;;;;4975788;28;20182;-73
2021/11/15 06:19:37;;;;;;;24.37;14.63;;;;;;;;;;4992060;28;20205;-73
2021/11/15 06:22:02;;;;;;;22.07;14.70;;;;;;;;;;4993181;28;20213;-74
2021/11/15 06:24:28;;;;;;;25.87;15.93;;;;;;;;;;4994188;28;20187;-74
2021/11/15 06:26:53;;;;;;;22.27;15.40;;;;;;;;;;4995094;28;20175;-73
2021/11/15 06:29:18;;;;;;;21.97;15.03;;;;;;;;;;4994097;28;20197;-73
2021/11/15 06:31:44;;;;;;;21.03;14.13;;;;;;;;;;4995467;28;20246;-73
2021/11/15 06:34:09;;;;;;;24.43;14.13;;;;;;;;;;4994255;28;20672;-74
2021/11/15 06:36:34;;;;;;;21.43;15.03;;;;;;;;;;4990973;28;20191;-74
2021/11/15 06:38:59;;;;;;;24.43;15.80;;;;;;;;;;4993908;28;20281;-72
2021/11/15 06:41:25;;;;;;;21.67;15.33;;;;;;;;;;4991937;28;20182;-73
2021/11/15 06:43:50;;;;;;;22.43;14.30;;;;;;;;;;4993673;28;20261;-73
2021/11/15 06:46:15;;;;;;;23.70;15.47;;;;;;;;;;4992522;28;20188;-74
2021/11/15 06:48:41;;;;;;;23.93;16.70;;;;;;;;;;4993125;28;21064;-74
2021/11/15 06:51:07;;;;;;;23.50;15.23;;;;;;;;;;4990378;28;20799;-73
2021/11/15 06:53:33;;;;;;;24.53;16.70;;;;;;;;;;4990833;28;20206;-73
2021/11/15 06:55:59;;;;;;;21.83;15.13;;;;;;;;;;4993015;28;20549;-72
2021/11/15 06:58:25;;;;;;;25.30;16.20;;;;;;;;;;4995711;28;20211;-74
2021/11/15 07:00:51;;;;;;;22.07;14.87;;;;;;;;;;4979046;28;20194;-73
2021/11/15 07:03:16;;;;;;;24.13;15.40;;;;;;;;;;4997763;28;20210;-74
2021/11/15 07:05:41;;;;;;;23.47;14.73;;;;;;;;;;4978766;28;20178;-73
2021/11/15 07:08:06;;;;;;;22.90;15.40;;;;;;;;;;4983421;28;20603;-73
2021/11/15 07:10:34;;;;;;;25.40;16.43;;;;;;;;;;4997085;28;20588;-73
2021/11/15 07:12:59;;;;;;;20.30;14.43;;;;;;;;;;4979035;28;20671;-74
2021/11/15 07:15:24;;;;;;;23.63;15.37;;;;;;;;;;4999618;28;20179;-74
2021/11/15 07:17:49;;;;;;;25.37;17.07;;;;;;;;;;5003060;28;20190;-74
2021/11/15 07:20:15;;;;;;;22.37;14.83;;;;;;;;;;4985827;28;20207;-74
2021/11/15 07:22:40;;;;;;;23.33;15.50;;;;;;;;;;5011676;28;20203;-74
2021/11/15 07:25:05;;;;;;;23.40;15.97;;;;;;;;;;5011906;28;20527;-71
2021/11/15 07:27:31;;;;;;;25.90;17.23;;;;;;;;;;5011466;28;20211;-74
2021/11/15 07:29:56;;;;;;;23.73;16.37;;;;;;;;;;5010122;28;20209;-76
2021/11/15 07:32:21;;;;;;;24.90;16.17;;;;;;;;;;5012370;28;20293;-73
2021/11/15 07:34:46;;;;;;;26.33;17.17;;;;;;;;;;5010223;28;20214;-74
2021/11/15 07:37:12;;;;;;;26.03;15.53;;;;;;;;;;5011146;28;20187;-74
2021/11/15 07:39:43;;;;;;;27.67;17.63;;;;;;;;;;5011700;28;20210;-74
2021/11/15 07:42:09;;;;;;;27.50;18.00;;;;;;;;;;5010610;28;20806;-73
2021/11/15 07:44:35;;;;;;;23.90;16.00;;;;;;;;;;5011417;28;20253;-74
2021/11/15 07:47:00;;;;;;;26.17;17.60;;;;;;;;;;4994122;28;20183;-76
2021/11/15 07:49:25;;;;;;;23.40;16.37;;;;;;;;;;5010062;28;20193;-74
2021/11/15 07:51:50;;;;;;;28.03;18.00;;;;;;;;;;4992996;28;20345;-74
2021/11/15 07:54:15;;;;;;;25.37;15.93;;;;;;;;;;5011406;28;20206;-74
2021/11/15 07:56:40;;;;;;;23.90;15.70;;;;;;;;;;5010384;28;20257;-74
2021/11/15 07:59:06;;;;;;;21.83;14.47;;;;;;;;;;5011612;28;20214;-74
2021/11/15 08:01:31;;;;;;;23.57;15.60;;;;;;;;;;4994111;28;20175;-73
2021/11/15 08:03:56;;;;;;;25.80;15.10;;;;;;;;;;5007773;28;20573;-74
2021/11/15 08:06:21;;;;;;;27.90;16.40;;;;;;;;;;5010051;28;20211;-73
2021/11/15 08:08:47;;;;;;;22.00;14.33;;;;;;;;;;4992451;28;20608;-73
2021/11/15 08:11:14;;;;;;;22.93;14.93;;;;;;;;;;5009328;28;20190;-73
2021/11/15 08:13:39;;;;;;;25.17;16.17;;;;;;;;;;5011300;28;20260;-73
2021/11/15 08:16:05;;;;;;;22.80;14.40;;;;;;;;;;4993622;28;20179;-73
2021/11/15 08:18:30;;;;;;;21.30;14.60;;;;;;;;;;5000942;28;20237;-73
2021/11/15 08:20:56;;;;;;;21.97;16.23;;;;;;;;;;4994814;28;20329;-74
2021/11/15 08:23:21;;;;;;;23.47;14.37;;;;;;;;;;4993090;28;20286;-73
2021/11/15 08:26:05;;;;;;;25.77;17.30;;;;;;;;;;4997695;28;20238;-72
2021/11/15 08:28:31;;;;;;;21.53;14.57;;;;;;;;;;4998812;28;20182;-74
2021/11/15 08:30:57;;;;;;;28.10;16.30;;;;;;;;;;4997859;28;20535;-75
2021/11/15 08:33:23;;;;;;;21.27;14.73;;;;;;;;;;4996885;28;20206;-73
2021/11/15 08:35:48;;;;;;;26.57;16.03;;;;;;;;;;4999982;28;20186;-73
2021/11/15 08:38:17;;;;;;;25.07;17.30;;;;;;;;;;4978198;28;20213;-72
2021/11/15 08:40:47;;;;;;;26.23;16.83;;;;;;;;;;4996278;28;20178;-73
2021/11/15 08:43:16;;;;;;;25.93;16.80;;;;;;;;;;4995118;28;20582;-76
2021/11/15 08:45:41;;;;;;;23.97;15.07;;;;;;;;;;5001596;28;20190;-77
2021/11/15 08:48:08;;;;;;;26.53;17.23;;;;;;;;;;4997821;28;20198;-77
2021/11/15 08:50:34;;;;;;;24.60;16.37;;;;;;;;;;4998623;28;20177;-75
2021/11/15 08:52:59;;;;;;;25.90;17.40;;;;;;;;;;4997047;28;20211;-76
2021/11/15 08:55:25;;;;;;;25.20;15.87;;;;;;;;;;4997771;28;20568;-79
2021/11/15 08:57:51;;;;;;;23.93;15.43;;;;;;;;;;4996981;28;20801;-75
2021/11/15 09:00:16;;;;;;;23.20;14.77;;;;;;;;;;4991890;28;20215;-75
2021/11/15 09:02:42;;;;;;;22.97;15.13;;;;;;;;;;4979617;28;20867;-78
2021/11/15 09:05:07;;;;;;;21.63;14.77;;;;;;;;;;4998669;28;20178;-75
2021/11/15 09:07:36;;;;;;;23.67;15.47;;;;;;;;;;4998888;28;20196;-76
2021/11/15 09:10:02;;;;;;;23.93;15.27;;;;;;;;;;4998181;28;20214;-76
2021/11/15 09:12:27;;;;;;;24.23;16.03;;;;;;;;;;4995419;28;20214;-76
2021/11/15 09:14:56;;;;;;;21.80;14.47;;;;;;;;;;4998545;28;20183;-78
2021/11/15 09:17:21;;;;;;;23.70;15.50;;;;;;;;;;4997736;28;20606;-75
2021/11/15 09:19:47;;;;;;;24.27;15.23;;;;;;;;;;5000004;28;20230;-75
2021/11/15 09:22:12;;;;;;;22.90;14.33;;;;;;;;;;4992672;28;20841;-76
2021/11/15 09:24:37;;;;;;;22.33;15.10;;;;;;;;;;4977570;28;20177;-76
2021/11/15 09:27:04;;;;;;;25.37;14.87;;;;;;;;;;4995618;28;20174;-78
2021/11/15 09:29:29;;;;;;;25.80;15.67;;;;;;;;;;4985456;28;20186;-78
2021/11/15 09:31:54;;;;;;;25.20;14.97;;;;;;;;;;4981203;28;20671;-76
2021/11/15 09:34:20;;;;;;;22.77;14.93;;;;;;;;;;4995507;28;20192;-75
2021/11/15 09:36:45;;;;;;;23.30;14.47;;;;;;;;;;4994217;28;20178;-77
2021/11/15 09:39:10;;;;;;;21.53;13.33;;;;;;;;;;4980710;28;20253;-76
2021/11/15 09:41:36;;;;;;;22.27;13.20;;;;;;;;;;4998027;28;20181;-77
2021/11/15 09:44:03;;;;;;;18.47;13.40;;;;;;;;;;4994685;28;20763;-75
2021/11/15 09:46:29;;;;;;;20.20;12.93;;;;;;;;;;4992637;28;20182;-77
2021/11/15 09:48:59;;;;;;;20.57;12.90;;;;;;;;;;4992955;28;20182;-75
2021/11/15 09:51:25;;;;;;;20.33;12.63;;;;;;;;;;4991858;28;20185;-75
2021/11/15 09:53:50;;;;;;;18.67;12.60;;;;;;;;;;4995502;28;20681;-78
2021/11/15 09:56:15;;;;;;;20.60;13.77;;;;;;;;;;4997440;28;20179;-75
2021/11/15 09:58:41;;;;;;;19.67;14.20;;;;;;;;;;4997326;28;20214;-75
2021/11/15 10:01:07;;;;;;;22.10;14.60;;;;;;;;;;4979754;28;20238;-76
2021/11/15 10:03:32;;;;;;;24.70;16.03;;;;;;;;;;4997810;28;20198;-74
2021/11/15 10:05:58;;;;;;;20.73;13.17;;;;;;;;;;4997035;28;20183;-77
2021/11/15 10:08:23;;;;;;;23.07;14.97;;;;;;;;;;4994748;28;20929;-75
2021/11/15 10:10:56;;;;;;;21.80;13.57;;;;;;;;;;4994039;28;20170;-77
2021/11/15 10:13:32;;;;;;;25.33;15.73;;;;;;;;;;4981976;28;20207;-75
2021/11/15 10:16:00;;;;;;;23.90;15.27;;;;;;;;;;4997134;28;20198;-75
2021/11/15 10:18:32;;;;;;;22.63;14.70;;;;;;;;;;4998341;28;20735;-74
2021/11/15 10:20:59;;;;;;;22.33;14.60;;;;;;;;;;4997435;28;20182;-77
2021/11/15 10:23:25;;;;;;;26.57;15.83;;;;;;;;;;4994177;28;20565;-79
2021/11/15 10:25:52;;;;;;;22.93;15.90;;;;;;;;;;4997875;28;20186;-75
2021/11/15 10:28:21;;;;;;;25.53;15.53;;;;;;;;;;4996945;28;20647;-76
2021/11/15 10:30:47;;;;;;;27.40;15.77;;;;;;;;;;4999614;28;20187;-75
2021/11/15 10:33:12;;;;;;;27.77;15.77;;;;;;;;;;4981620;28;20618;-74
2021/11/15 10:35:38;;;;;;;26.77;17.17;;;;;;;;;;5003448;28;20845;-75
2021/11/15 10:38:04;;;;;;;25.53;14.83;;;;;;;;;;5001460;28;20207;-75
2021/11/15 10:40:31;;;;;;;26.43;17.43;;;;;;;;;;5000283;28;20266;-75
2021/11/15 10:42:56;;;;;;;26.43;17.17;;;;;;;;;;4999202;28;20697;-77
2021/11/15 10:45:23;;;;;;;22.73;15.63;;;;;;;;;;5003401;28;20187;-76
2021/11/15 10:47:58;;;;;;;24.13;15.30;;;;;;;;;;4980947;28;20298;-75
2021/11/15 10:50:46;;;;;;;25.40;17.03;;;;;;;;;;5000821;28;20193;-77
2021/11/15 10:53:17;;;;;;;23.90;15.37;;;;;;;;;;4998653;28;20209;-74
2021/11/15 10:56:02;;;;;;;24.67;14.60;;;;;;;;;;4985317;28;20181;-75
2021/11/15 10:58:27;;;;;;;24.93;15.53;;;;;;;;;;5002229;28;20196;-77
2021/11/15 11:00:58;;;;;;;21.90;14.00;;;;;;;;;;5002279;28;20700;-76
2021/11/15 11:03:26;;;;;;;22.07;14.43;;;;;;;;;;4999477;28;20286;-74
2021/11/15 11:05:52;;;;;;;22.47;15.20;;;;;;;;;;4997521;28;20183;-75
2021/11/15 11:08:37;;;;;;;25.30;15.60;;;;;;;;;;4997652;28;20269;-77
2021/11/15 11:11:08;;;;;;;24.00;15.10;;;;;;;;;;4981190;28;20190;-76
2021/11/15 11:13:39;;;;;;;23.67;15.13;;;;;;;;;;4985554;28;20197;-76
2021/11/15 11:16:05;;;;;;;24.03;15.23;;;;;;;;;;4996390;28;20179;-77
2021/11/15 11:18:40;;;;;;;26.43;15.67;;;;;;;;;;4980675;28;20987;-77
2021/11/15 11:26:26;;;;;;;24.30;14.70;;;;;;;;;;5002325;28;20254;-79
2021/11/15 11:28:57;;;;;;;20.57;14.77;;;;;;;;;;4982200;28;20273;-77
2021/11/15 11:31:23;;;;;;;23.67;14.47;;;;;;;;;;4982952;28;20198;-79
2021/11/15 11:33:48;;;;;;;21.47;13.20;;;;;;;;;;4995814;28;20187;-76
2021/11/15 11:36:13;;;;;;;26.37;14.67;;;;;;;;;;4999141;28;20187;-79
2021/11/15 11:38:39;;;;;;;27.10;14.93;;;;;;;;;;4981770;28;20798;-78
2021/11/15 11:41:05;;;;;;;20.87;12.60;;;;;;;;;;5000267;28;20183;-76
2021/11/15 11:43:31;;;;;;;20.30;13.53;;;;;;;;;;4996582;28;20249;-76
2021/11/15 11:45:57;;;;;;;19.90;11.90;;;;;;;;;;4995429;28;20179;-77
2021/11/15 11:48:23;;;;;;;19.17;11.53;;;;;;;;;;4980627;28;20817;-76
2021/11/15 11:50:50;;;;;;;19.37;10.93;;;;;;;;;;4998197;28;20190;-77
2021/11/15 11:53:24;;;;;;;18.97;10.97;;;;;;;;;;4997938;28;20231;-77
2021/11/15 11:55:49;;;;;;;18.73;10.57;;;;;;;;;;4990023;28;20218;-77
2021/11/15 11:58:22;;;;;;;17.67;10.43;;;;;;;;;;4998357;28;20628;-79
2021/11/15 12:00:51;;;;;;;16.63;11.47;;;;;;;;;;4998182;28;20210;-76
2021/11/15 12:03:16;;;;;;;21.07;12.00;;;;;;;;;;4996690;28;20202;-79
2021/11/15 12:05:42;;;;;;;17.43;11.60;;;;;;;;;;4983073;28;20182;-76
2021/11/15 12:08:09;;;;;;;18.70;9.67;;;;;;;;;;5000192;28;20182;-76
2021/11/15 12:10:56;;;;;;;14.97;9.47;;;;;;;;;;4997637;28;20198;-76
2021/11/15 12:13:24;;;;;;;16.37;10.47;;;;;;;;;;4984934;28;20294;-78
2021/11/15 12:15:56;;;;;;;17.20;9.33;;;;;;;;;;4996632;28;20175;-77
2021/11/15 12:18:24;;;;;;;14.77;9.57;;;;;;;;;;5001698;28;20187;-78
2021/11/15 12:21:05;;;;;;;16.70;9.60;;;;;;;;;;5000269;28;20194;-77
2021/11/15 12:23:35;;;;;;;16.20;9.10;;;;;;;;;;4980994;28;20202;-77
2021/11/15 12:26:01;;;;;;;16.03;10.00;;;;;;;;;;4998332;28;20190;-77
2021/11/15 12:28:28;;;;;;;13.23;8.30;;;;;;;;;;4998930;28;20706;-77
2021/11/15 12:30:53;;;;;;;17.27;10.27;;;;;;;;;;4980385;28;20206;-77
2021/11/15 12:33:20;;;;;;;15.07;9.20;;;;;;;;;;4997814;28;20696;-79
2021/11/15 12:35:54;;;;;;;16.33;9.70;;;;;;;;;;4996829;28;20222;-77
2021/11/15 12:38:38;;;;;;;13.63;8.67;;;;;;;;;;4980122;28;20229;-76
2021/11/15 12:41:30;;;;;;;14.93;8.77;;;;;;;;;;4997875;28;20672;-76
2021/11/15 12:43:58;;;;;;;13.10;8.40;;;;;;;;;;4997088;28;20230;-78
2021/11/15 12:46:23;;;;;;;15.27;8.10;;;;;;;;;;4996598;28;20622;-78
2021/11/15 12:48:49;;;;;;;14.07;8.40;;;;;;;;;;4996240;28;20197;-79
2021/11/15 12:51:14;;;;;;;14.13;7.97;;;;;;;;;;4979453;28;20188;-76
2021/11/15 12:53:52;;;;;;;12.53;7.80;;;;;;;;;;4999100;28;20200;-77
2021/11/15 12:56:22;;;;;;;13.83;7.57;;;;;;;;;;5003338;28;20252;-77
2021/11/15 12:58:48;;;;;;;13.57;8.50;;;;;;;;;;4981997;28;20341;-78
2021/11/15 13:01:15;;;;;;;13.53;9.27;;;;;;;;;;4995445;28;20211;-77
2021/11/15 13:03:42;;;;;;;11.47;8.00;;;;;;;;;;4998888;28;20199;-79
2021/11/15 13:06:07;;;;;;;13.60;7.90;;;;;;;;;;4998739;28;20552;-76
2021/11/15 13:08:33;;;;;;;14.33;7.97;;;;;;;;;;4987928;28;20205;-77
2021/11/15 13:10:59;;;;;;;14.47;8.77;;;;;;;;;;5004981;28;20166;-76
2021/11/15 13:13:25;;;;;;;14.27;8.70;;;;;;;;;;4993610;28;20210;-80
2021/11/15 13:15:50;;;;;;;12.80;7.57;;;;;;;;;;4992402;28;20289;-76
2021/11/15 13:18:16;;;;;;;13.13;8.40;;;;;;;;;;4980333;28;20756;-76
2021/11/15 13:20:41;;;;;;;14.67;8.13;;;;;;;;;;4996757;28;20617;-76
2021/11/15 13:23:06;;;;;;;15.17;7.87;;;;;;;;;;4998557;28;20230;-77
2021/11/15 13:25:31;;;;;;;11.10;7.00;;;;;;;;;;4995450;28;20824;-76
2021/11/15 13:27:57;;;;;;;14.77;8.50;;;;;;;;;;4997626;28;21478;-77
2021/11/15 13:30:23;;;;;;;17.43;8.60;;;;;;;;;;4979411;28;20192;-75
2021/11/15 13:32:50;;;;;;;13.87;8.67;;;;;;;;;;4982565;28;20203;-77
2021/11/15 13:35:15;;;;;;;16.40;9.13;;;;;;;;;;4992794;28;20536;-75
2021/11/15 13:37:41;;;;;;;16.67;10.93;;;;;;;;;;4997554;28;20190;-77
2021/11/15 13:40:07;;;;;;;17.10;9.87;;;;;;;;;;4995925;28;20308;-77
2021/11/15 13:42:32;;;;;;;15.80;9.00;;;;;;;;;;4998212;28;20495;-75
2021/11/15 13:44:57;;;;;;;14.53;8.03;;;;;;;;;;4993400;28;20792;-78
2021/11/15 13:47:24;;;;;;;13.97;8.00;;;;;;;;;;4991750;28;20179;-81
2021/11/15 13:49:49;;;;;;;15.83;9.10;;;;;;;;;;4999773;28;20213;-77
2021/11/15 13:52:15;;;;;;;15.03;8.77;;;;;;;;;;5000706;28;20772;-77
2021/11/15 13:54:46;;;;;;;17.03;9.47;;;;;;;;;;5004920;28;20236;-76
2021/11/15 13:57:12;;;;;;;18.80;10.30;;;;;;;;;;4992641;28;20171;-76
2021/11/15 13:59:37;;;;;;;19.97;10.67;;;;;;;;;;5010780;28;20207;-77
2021/11/15 14:02:03;;;;;;;17.13;9.70;;;;;;;;;;4997514;28;20199;-79
2021/11/15 14:04:28;;;;;;;15.20;8.63;;;;;;;;;;4993578;28;20194;-76
2021/11/15 14:06:53;;;;;;;16.20;9.17;;;;;;;;;;4995290;28;20695;-77
2021/11/15 14:09:18;;;;;;;15.33;7.83;;;;;;;;;;4995846;28;20653;-76
2021/11/15 14:11:44;;;;;;;14.57;7.73;;;;;;;;;;4991899;28;20202;-76
2021/11/15 14:14:09;;;;;;;15.87;9.37;;;;;;;;;;4995732;28;20236;-77
2021/11/15 14:16:34;;;;;;;16.43;8.07;;;;;;;;;;5000100;28;20191;-77
2021/11/15 14:19:00;;;;;;;15.73;8.07;;;;;;;;;;4998976;28;20224;-77